Time;durP1;ratioP1;P1;durP2;ratioP2;P2;SDS_P1;SDS_P2;PMS_P1;PMS_P2;Temp;Humidity;BMP_temperature;BMP_pressure;BME280_temperature;BME280_humidity;BME280_pressure;Samples;Min_cycle;Max_cycle;Signal;HPM_P1;HPM_P2
2022/03/06 00:01:53;;;;;;;28.30;16.55;;;6.10;54.90;;;;;;5064168;28;20538;-67
2022/03/06 00:04:20;;;;;;;27.80;16.45;;;6.00;55.20;;;;;;5048082;28;20029;-67
2022/03/06 00:06:46;;;;;;;26.13;16.02;;;6.00;55.20;;;;;;5051252;28;20455;-65
2022/03/06 00:09:12;;;;;;;28.17;16.60;;;6.00;55.30;;;;;;5059362;28;20033;-65
2022/03/06 00:11:38;;;;;;;27.17;16.52;;;6.00;55.40;;;;;;5062270;28;20082;-65
2022/03/06 00:14:04;;;;;;;29.20;18.23;;;5.90;55.60;;;;;;5067943;28;20530;-65
2022/03/06 00:16:29;;;;;;;27.88;16.55;;;5.90;55.90;;;;;;5068719;28;20039;-65
2022/03/06 00:18:55;;;;;;;29.80;16.45;;;5.80;55.70;;;;;;5068512;28;20024;-65
2022/03/06 00:21:21;;;;;;;31.58;17.55;;;5.80;55.80;;;;;;5053340;28;20055;-65
2022/03/06 00:23:47;;;;;;;27.45;15.55;;;5.80;56.30;;;;;;5053668;28;20025;-65
2022/03/06 00:26:13;;;;;;;25.27;15.32;;;5.70;56.40;;;;;;5062122;28;20033;-65
2022/03/06 00:28:39;;;;;;;28.73;17.05;;;5.70;56.30;;;;;;5058214;28;20406;-65
2022/03/06 00:31:05;;;;;;;30.70;16.13;;;5.60;56.40;;;;;;5061048;28;20049;-65
2022/03/06 00:33:31;;;;;;;27.35;16.42;;;5.60;56.50;;;;;;5051880;28;20119;-65
2022/03/06 00:35:56;;;;;;;30.38;16.70;;;5.60;56.50;;;;;;5051568;28;20479;-68
2022/03/06 00:38:22;;;;;;;28.13;16.38;;;5.50;56.70;;;;;;5071386;28;20040;-68
2022/03/06 00:40:48;;;;;;;25.60;15.55;;;5.50;57.50;;;;;;5051649;28;20029;-67
2022/03/06 00:43:15;;;;;;;28.10;16.30;;;5.40;56.80;;;;;;5057777;28;20513;-66
2022/03/06 00:45:42;;;;;;;27.17;16.45;;;5.40;56.90;;;;;;5069854;28;20485;-65
2022/03/06 00:48:08;;;;;;;31.05;17.15;;;5.30;57.10;;;;;;5059665;28;20021;-65
2022/03/06 00:50:37;;;;;;;27.65;15.82;;;5.30;57.10;;;;;;5050823;28;20029;-68
2022/03/06 00:53:03;;;;;;;26.17;16.13;;;5.30;57.30;;;;;;5054004;28;20417;-68
2022/03/06 00:55:30;;;;;;;31.77;16.73;;;5.20;57.40;;;;;;5069034;28;20028;-68
2022/03/06 00:57:56;;;;;;;28.02;15.65;;;5.20;57.50;;;;;;5061211;28;20029;-64
2022/03/06 01:00:23;;;;;;;26.77;15.88;;;5.20;57.80;;;;;;5062522;28;20032;-64
2022/03/06 01:02:49;;;;;;;28.15;15.82;;;5.10;57.80;;;;;;5055824;28;20025;-64
2022/03/06 01:05:14;;;;;;;25.75;15.88;;;5.10;57.80;;;;;;5067832;28;20040;-68
2022/03/06 01:07:40;;;;;;;27.13;15.57;;;5.10;57.90;;;;;;5051523;28;20813;-68
2022/03/06 01:10:06;;;;;;;24.80;14.55;;;5.10;57.80;;;;;;5054156;28;20110;-68
2022/03/06 01:12:32;;;;;;;25.25;14.88;;;5.00;58.10;;;;;;5053630;28;20178;-68
2022/03/06 01:14:58;;;;;;;26.60;16.38;;;5.00;58.10;;;;;;5061300;28;20151;-67
2022/03/06 01:17:24;;;;;;;24.20;15.27;;;5.00;58.10;;;;;;5060989;28;20801;-67
2022/03/06 01:19:50;;;;;;;26.05;14.20;;;5.00;58.10;;;;;;5062216;28;20055;-67
2022/03/06 01:22:16;;;;;;;29.60;16.02;;;4.90;58.00;;;;;;5061472;28;20590;-67
2022/03/06 01:24:42;;;;;;;25.52;15.23;;;4.90;58.80;;;;;;5079646;28;20158;-66
2022/03/06 01:27:08;;;;;;;28.90;16.15;;;4.90;58.30;;;;;;5067664;28;20471;-67
2022/03/06 01:29:34;;;;;;;25.13;15.45;;;4.80;58.50;;;;;;5072048;28;20041;-67
2022/03/06 01:31:59;;;;;;;28.27;16.00;;;4.80;58.50;;;;;;5054671;28;20063;-68
2022/03/06 01:34:25;;;;;;;26.70;16.30;;;4.80;58.50;;;;;;5064198;28;20113;-64
2022/03/06 01:36:51;;;;;;;26.30;16.30;;;4.80;58.60;;;;;;5079455;28;20044;-63
2022/03/06 01:39:17;;;;;;;23.35;15.00;;;4.70;58.70;;;;;;5069170;28;20028;-64
2022/03/06 01:41:42;;;;;;;23.73;14.43;;;4.70;58.90;;;;;;5062445;28;20768;-64
2022/03/06 01:44:13;;;;;;;27.08;15.10;;;4.70;58.90;;;;;;5089756;28;20029;-64
2022/03/06 01:46:42;;;;;;;28.67;16.05;;;4.60;59.00;;;;;;5062585;28;20035;-68
2022/03/06 01:49:08;;;;;;;21.48;13.73;;;4.60;59.00;;;;;;5067855;28;20039;-68
2022/03/06 01:51:33;;;;;;;23.38;14.80;;;4.50;59.20;;;;;;5061729;28;20032;-68
2022/03/06 01:53:59;;;;;;;26.98;14.02;;;4.50;59.50;;;;;;5069317;28;20037;-68
2022/03/06 01:56:25;;;;;;;25.08;14.75;;;4.40;59.40;;;;;;5064160;28;20028;-64
2022/03/06 01:58:51;;;;;;;24.52;13.98;;;4.40;59.40;;;;;;5068182;28;20025;-64
2022/03/06 02:01:16;;;;;;;24.40;14.65;;;4.40;59.60;;;;;;5066961;28;20021;-64
2022/03/06 02:03:42;;;;;;;22.60;13.60;;;4.40;59.70;;;;;;5065471;28;20035;-64
2022/03/06 02:06:08;;;;;;;24.92;15.20;;;4.40;59.70;;;;;;5066604;28;20443;-64
2022/03/06 02:08:34;;;;;;;23.33;14.27;;;4.30;59.60;;;;;;5056363;28;20041;-64
2022/03/06 02:11:00;;;;;;;22.88;14.52;;;4.30;59.70;;;;;;5070114;28;20506;-63
2022/03/06 02:13:27;;;;;;;25.00;15.18;;;4.30;59.90;;;;;;5069390;28;20127;-63
2022/03/06 02:15:53;;;;;;;22.60;14.45;;;4.20;59.80;;;;;;5068056;28;20031;-67
2022/03/06 02:18:22;;;;;;;23.48;14.18;;;4.20;59.80;;;;;;5066534;28;20024;-67
2022/03/06 02:20:47;;;;;;;24.08;14.45;;;4.20;59.90;;;;;;5066464;28;20029;-68
2022/03/06 02:23:13;;;;;;;20.73;14.57;;;4.20;59.80;;;;;;5067885;28;20099;-68
2022/03/06 02:25:39;;;;;;;24.23;14.35;;;4.20;60.00;;;;;;5061084;28;20029;-68
2022/03/06 02:28:09;;;;;;;22.02;13.70;;;4.10;59.90;;;;;;5057515;28;20064;-67
2022/03/06 02:30:38;;;;;;;19.48;13.38;;;4.10;60.00;;;;;;5068366;28;20071;-63
2022/03/06 02:33:06;;;;;;;20.58;13.60;;;4.10;60.00;;;;;;5065352;28;20085;-67
2022/03/06 02:35:32;;;;;;;21.52;13.70;;;4.10;60.10;;;;;;5059689;28;20033;-68
2022/03/06 02:37:58;;;;;;;21.92;14.05;;;4.00;60.10;;;;;;5063296;28;20029;-65
2022/03/06 02:40:24;;;;;;;22.02;13.82;;;4.00;60.20;;;;;;5063751;28;20032;-64
2022/03/06 02:42:51;;;;;;;23.95;14.60;;;4.00;60.30;;;;;;5050231;28;20447;-68
2022/03/06 02:45:22;;;;;;;21.85;14.13;;;4.00;60.40;;;;;;5063174;28;20055;-64
2022/03/06 02:47:49;;;;;;;22.60;13.48;;;4.00;60.40;;;;;;5068537;28;20029;-64
2022/03/06 02:50:22;;;;;;;21.52;13.65;;;3.90;60.40;;;;;;5062889;28;20128;-64
2022/03/06 02:52:48;;;;;;;22.00;13.82;;;3.90;60.40;;;;;;5058620;28;20040;-68
2022/03/06 02:55:16;;;;;;;20.88;13.50;;;3.90;60.40;;;;;;5067762;28;20020;-68
2022/03/06 02:57:42;;;;;;;20.38;13.48;;;3.90;60.50;;;;;;5059900;28;20048;-68
2022/03/06 03:00:12;;;;;;;19.67;13.00;;;3.80;60.50;;;;;;5062829;28;20372;-68
2022/03/06 03:02:38;;;;;;;21.95;14.35;;;3.80;60.60;;;;;;5058661;28;20037;-68
2022/03/06 03:05:05;;;;;;;20.27;13.65;;;3.80;60.80;;;;;;5057078;28;20078;-67
2022/03/06 03:07:31;;;;;;;21.02;13.18;;;3.80;60.70;;;;;;5052518;28;20048;-68
2022/03/06 03:09:57;;;;;;;20.95;13.55;;;3.70;60.70;;;;;;5095931;28;20396;-64
2022/03/06 03:12:23;;;;;;;20.83;13.20;;;3.70;60.90;;;;;;5063442;28;20483;-64
2022/03/06 03:14:49;;;;;;;20.08;13.07;;;3.70;60.90;;;;;;5064266;28;20027;-64
2022/03/06 03:17:14;;;;;;;20.30;13.77;;;3.60;61.10;;;;;;5055497;28;20025;-67
2022/03/06 03:19:40;;;;;;;21.27;13.63;;;3.60;61.10;;;;;;5053737;28;20108;-67
2022/03/06 03:22:06;;;;;;;23.92;14.27;;;3.60;61.30;;;;;;5059079;28;20506;-67
2022/03/06 03:24:31;;;;;;;20.55;13.60;;;3.60;61.40;;;;;;5061547;28;20021;-67
2022/03/06 03:26:57;;;;;;;21.52;13.57;;;3.60;61.50;;;;;;5046839;28;20423;-68
2022/03/06 03:29:23;;;;;;;20.10;13.98;;;3.50;61.50;;;;;;5056012;28;20108;-67
2022/03/06 03:31:49;;;;;;;21.95;13.82;;;3.50;61.50;;;;;;5059052;28;20032;-67
2022/03/06 03:34:15;;;;;;;22.45;13.80;;;3.50;61.50;;;;;;5064878;28;20445;-68
2022/03/06 03:36:41;;;;;;;20.98;13.60;;;3.50;61.60;;;;;;5066857;28;20107;-67
2022/03/06 03:39:06;;;;;;;21.15;13.30;;;3.40;61.70;;;;;;5048738;28;20112;-68
2022/03/06 03:41:32;;;;;;;21.13;13.88;;;3.40;62.30;;;;;;5062936;28;20020;-68
2022/03/06 03:43:58;;;;;;;22.35;13.27;;;3.40;61.80;;;;;;5063822;28;20035;-67
2022/03/06 03:46:24;;;;;;;20.50;12.52;;;3.30;61.70;;;;;;5050211;28;20379;-67
2022/03/06 03:48:49;;;;;;;18.92;12.48;;;3.30;61.80;;;;;;5060342;28;20474;-68
2022/03/06 03:51:15;;;;;;;21.45;13.05;;;3.30;61.90;;;;;;5061204;28;20079;-68
2022/03/06 03:53:41;;;;;;;18.98;12.88;;;3.30;62.00;;;;;;5058751;28;20048;-67
2022/03/06 03:56:06;;;;;;;22.65;12.82;;;3.20;62.10;;;;;;5055260;28;20082;-68
2022/03/06 03:58:34;;;;;;;21.63;13.32;;;3.20;62.10;;;;;;5060240;28;20079;-63
2022/03/06 04:00:59;;;;;;;19.52;12.77;;;3.20;62.30;;;;;;5068659;28;20021;-67
2022/03/06 04:03:25;;;;;;;22.15;13.82;;;3.10;62.40;;;;;;5066031;28;20500;-67
2022/03/06 04:05:51;;;;;;;24.75;13.88;;;3.10;62.40;;;;;;5059962;28;20057;-67
2022/03/06 04:08:17;;;;;;;20.33;12.90;;;3.10;62.40;;;;;;5070355;28;20464;-67
2022/03/06 04:10:43;;;;;;;20.23;13.70;;;3.10;62.60;;;;;;5060821;28;20094;-67
2022/03/06 04:13:09;;;;;;;22.92;13.77;;;3.10;62.60;;;;;;5071421;28;20028;-67
2022/03/06 04:15:35;;;;;;;20.77;12.65;;;3.00;62.50;;;;;;5061123;28;20075;-67
2022/03/06 04:18:00;;;;;;;20.27;13.68;;;3.00;62.50;;;;;;5077573;28;20025;-67
2022/03/06 04:20:26;;;;;;;21.85;12.55;;;3.00;62.60;;;;;;5054539;28;20574;-67
2022/03/06 04:22:52;;;;;;;20.65;12.82;;;3.00;62.70;;;;;;5064549;28;20406;-68
2022/03/06 04:25:18;;;;;;;21.77;13.27;;;3.00;62.80;;;;;;5070930;28;20020;-68
2022/03/06 04:27:44;;;;;;;20.02;13.10;;;2.90;62.70;;;;;;5070437;28;20063;-68
2022/03/06 04:30:10;;;;;;;20.42;13.07;;;2.90;62.80;;;;;;5067550;28;20067;-68
2022/03/06 04:32:39;;;;;;;20.35;12.77;;;2.90;62.80;;;;;;5065691;28;20032;-67
2022/03/06 04:35:06;;;;;;;19.98;12.90;;;2.90;62.90;;;;;;5067347;28;20040;-67
2022/03/06 04:37:31;;;;;;;19.80;12.07;;;2.80;63.00;;;;;;5076267;28;20064;-67
2022/03/06 04:39:57;;;;;;;20.88;13.57;;;2.80;63.10;;;;;;5066911;28;20047;-66
2022/03/06 04:42:26;;;;;;;23.13;13.32;;;2.80;63.20;;;;;;5065603;28;20035;-67
2022/03/06 04:44:51;;;;;;;19.15;12.45;;;2.80;63.20;;;;;;5069455;28;20154;-63
2022/03/06 04:47:17;;;;;;;19.17;12.48;;;2.80;63.30;;;;;;5065496;28;20103;-64
2022/03/06 04:49:43;;;;;;;19.17;12.07;;;2.70;63.30;;;;;;5065052;28;20029;-64
2022/03/06 04:52:12;;;;;;;20.67;12.77;;;2.70;63.40;;;;;;5055045;28;20028;-63
2022/03/06 04:54:37;;;;;;;19.20;12.52;;;2.70;63.60;;;;;;5066701;28;20023;-64
2022/03/06 04:57:03;;;;;;;20.70;13.27;;;2.70;63.60;;;;;;5057011;28;20033;-68
2022/03/06 04:59:29;;;;;;;21.00;12.85;;;2.70;63.70;;;;;;5066987;28;20058;-64
2022/03/06 05:01:55;;;;;;;22.20;14.35;;;2.70;63.80;;;;;;5065354;28;20033;-64
2022/03/06 05:04:21;;;;;;;19.27;13.00;;;2.60;63.80;;;;;;5061353;28;20029;-64
2022/03/06 05:06:47;;;;;;;20.42;12.45;;;2.60;63.80;;;;;;5067274;28;20135;-68
2022/03/06 05:09:12;;;;;;;20.08;12.30;;;2.60;64.10;;;;;;5065452;28;20037;-68
2022/03/06 05:11:38;;;;;;;18.05;12.10;;;2.60;64.00;;;;;;5063476;28;20027;-67
2022/03/06 05:14:04;;;;;;;18.98;12.32;;;2.50;64.00;;;;;;5050835;28;20099;-64
2022/03/06 05:16:30;;;;;;;22.20;13.27;;;2.50;64.00;;;;;;5067676;28;20040;-64
2022/03/06 05:18:56;;;;;;;19.27;12.63;;;2.50;64.10;;;;;;5066363;28;20041;-64
2022/03/06 05:21:22;;;;;;;21.90;13.25;;;2.50;64.20;;;;;;5068848;28;20487;-64
2022/03/06 05:23:47;;;;;;;20.33;12.48;;;2.50;64.10;;;;;;5066769;28;20020;-64
2022/03/06 05:26:13;;;;;;;20.83;12.75;;;2.50;64.20;;;;;;5067719;28;20382;-68
2022/03/06 05:28:41;;;;;;;21.60;13.75;;;2.40;64.50;;;;;;5062381;28;20033;-68
2022/03/06 05:31:08;;;;;;;18.80;13.15;;;2.40;64.80;;;;;;5062362;28;20029;-64
2022/03/06 05:33:34;;;;;;;19.15;13.05;;;2.40;64.80;;;;;;5055330;28;20041;-64
2022/03/06 05:35:59;;;;;;;18.50;12.32;;;2.40;64.70;;;;;;5068451;28;20037;-63
2022/03/06 05:38:25;;;;;;;22.05;13.20;;;2.40;64.80;;;;;;5049968;28;20029;-64
2022/03/06 05:40:51;;;;;;;19.88;13.07;;;2.40;64.80;;;;;;5067949;28;20099;-64
2022/03/06 05:43:17;;;;;;;19.38;12.75;;;2.40;64.80;;;;;;5050328;28;20021;-64
2022/03/06 05:45:44;;;;;;;20.33;13.30;;;2.40;64.80;;;;;;5058107;28;20441;-64
2022/03/06 05:48:11;;;;;;;22.88;14.30;;;2.40;65.10;;;;;;5058181;28;20036;-64
2022/03/06 05:50:36;;;;;;;19.58;12.80;;;2.40;65.30;;;;;;5065945;28;20036;-63
2022/03/06 05:53:02;;;;;;;20.48;12.80;;;2.40;65.20;;;;;;5054257;28;20064;-65
2022/03/06 05:55:30;;;;;;;19.38;13.00;;;2.40;65.20;;;;;;5049844;28;20017;-67
2022/03/06 05:57:56;;;;;;;20.52;12.73;;;2.30;65.10;;;;;;5063434;28;20037;-67
2022/03/06 06:00:22;;;;;;;22.65;13.32;;;2.30;65.30;;;;;;5058520;28;20418;-67
2022/03/06 06:02:47;;;;;;;19.42;13.80;;;2.30;65.50;;;;;;5062696;28;20033;-67
2022/03/06 06:05:15;;;;;;;20.35;13.05;;;2.30;65.40;;;;;;5050972;28;20037;-67
2022/03/06 06:07:41;;;;;;;19.90;14.27;;;2.30;65.50;;;;;;5061953;28;20093;-64
2022/03/06 06:10:07;;;;;;;21.92;14.13;;;2.30;65.60;;;;;;5053981;28;20033;-68
2022/03/06 06:12:33;;;;;;;18.60;12.50;;;2.20;65.60;;;;;;5065656;28;20036;-65
2022/03/06 06:14:59;;;;;;;19.55;13.48;;;2.20;65.60;;;;;;5057910;28;20585;-64
2022/03/06 06:17:30;;;;;;;20.67;13.50;;;2.20;65.70;;;;;;5049468;28;20036;-67
2022/03/06 06:19:56;;;;;;;20.85;13.23;;;2.10;65.80;;;;;;5066443;28;20029;-64
2022/03/06 06:22:22;;;;;;;20.92;13.07;;;2.10;65.90;;;;;;5063728;28;20052;-65
2022/03/06 06:24:47;;;;;;;19.02;13.65;;;2.10;65.90;;;;;;5049790;28;20158;-65
2022/03/06 06:27:13;;;;;;;20.20;12.85;;;2.10;66.00;;;;;;5049141;28;20041;-65
2022/03/06 06:29:39;;;;;;;17.48;12.30;;;2.10;66.20;;;;;;5074632;28;20041;-64
2022/03/06 06:32:05;;;;;;;21.23;12.98;;;2.10;66.20;;;;;;5049621;28;20364;-63
2022/03/06 06:34:31;;;;;;;18.60;12.48;;;2.10;66.70;;;;;;5049212;28;20083;-67
2022/03/06 06:36:58;;;;;;;21.98;14.05;;;2.10;66.10;;;;;;5061627;28;20024;-67
2022/03/06 06:39:25;;;;;;;20.58;13.90;;;2.00;66.20;;;;;;5063554;28;20470;-67
2022/03/06 06:41:51;;;;;;;21.77;13.80;;;2.00;66.40;;;;;;5073557;28;20588;-67
2022/03/06 06:44:17;;;;;;;18.63;12.65;;;2.00;66.50;;;;;;5068629;28;20032;-64
2022/03/06 06:46:43;;;;;;;20.85;14.10;;;1.90;66.50;;;;;;5057829;28;20040;-66
2022/03/06 06:49:10;;;;;;;19.63;13.18;;;1.90;67.00;;;;;;5054708;28;20116;-64
2022/03/06 06:51:38;;;;;;;20.77;12.88;;;1.90;67.00;;;;;;5056846;28;20106;-67
2022/03/06 06:54:04;;;;;;;18.73;13.13;;;1.90;66.90;;;;;;5049442;28;20043;-64
2022/03/06 06:56:30;;;;;;;18.27;12.98;;;1.90;67.20;;;;;;5097623;28;20028;-64
2022/03/06 06:58:56;;;;;;;18.92;11.82;;;1.90;67.30;;;;;;5063372;28;20024;-64
2022/03/06 07:01:21;;;;;;;17.17;11.95;;;1.90;67.50;;;;;;5057922;28;20027;-64
2022/03/06 07:03:47;;;;;;;21.85;13.02;;;1.90;67.60;;;;;;5056916;28;20115;-67
2022/03/06 07:06:13;;;;;;;19.23;13.38;;;1.90;67.70;;;;;;5051793;28;20411;-64
2022/03/06 07:08:38;;;;;;;20.88;13.25;;;1.90;68.10;;;;;;5053325;28;20445;-64
2022/03/06 07:11:04;;;;;;;20.13;13.38;;;1.90;68.20;;;;;;5066749;28;20455;-67
2022/03/06 07:13:31;;;;;;;19.42;12.82;;;2.00;68.60;;;;;;5059119;28;20037;-64
2022/03/06 07:15:57;;;;;;;19.88;13.70;;;1.90;68.40;;;;;;5050415;28;20040;-64
2022/03/06 07:18:23;;;;;;;18.92;12.88;;;2.00;68.70;;;;;;5060482;28;20438;-65
2022/03/06 07:20:48;;;;;;;20.45;12.93;;;2.00;68.70;;;;;;5065274;28;20025;-68
2022/03/06 07:23:15;;;;;;;20.10;12.07;;;2.00;69.00;;;;;;5054307;28;20440;-65
2022/03/06 07:25:41;;;;;;;17.40;12.02;;;2.00;69.20;;;;;;5068996;28;20045;-64
2022/03/06 07:28:07;;;;;;;15.73;11.00;;;1.90;69.20;;;;;;5067915;28;20079;-64
2022/03/06 07:30:33;;;;;;;19.83;13.00;;;2.00;69.20;;;;;;5068751;28;20056;-64
2022/03/06 07:33:00;;;;;;;20.08;13.20;;;2.00;69.70;;;;;;5047210;28;20032;-67
2022/03/06 07:35:27;;;;;;;17.83;11.85;;;2.00;69.50;;;;;;5058133;28;20036;-67
2022/03/06 07:37:52;;;;;;;17.98;12.43;;;2.10;70.20;;;;;;5058965;28;20104;-67
2022/03/06 07:40:21;;;;;;;17.80;11.90;;;2.10;69.80;;;;;;5061465;28;20103;-67
2022/03/06 07:42:47;;;;;;;15.77;10.55;;;2.20;69.90;;;;;;5064856;28;20028;-67
2022/03/06 07:45:14;;;;;;;20.52;12.15;;;2.20;69.80;;;;;;5071171;28;20135;-64
2022/03/06 07:47:40;;;;;;;15.88;11.02;;;2.20;69.90;;;;;;5067697;28;20456;-64
2022/03/06 07:50:08;;;;;;;15.38;10.57;;;2.20;69.90;;;;;;5068488;28;20074;-64
2022/03/06 07:52:34;;;;;;;17.40;10.43;;;2.20;70.00;;;;;;5072688;28;20386;-64
2022/03/06 07:55:00;;;;;;;15.63;10.63;;;2.30;70.00;;;;;;5067405;28;20486;-65
2022/03/06 07:57:26;;;;;;;15.75;11.48;;;2.30;70.30;;;;;;5072007;28;20027;-65
2022/03/06 07:59:52;;;;;;;15.38;11.05;;;2.40;70.50;;;;;;5049856;28;20032;-64
2022/03/06 08:02:17;;;;;;;15.57;10.45;;;2.40;70.50;;;;;;5055726;28;20386;-65
2022/03/06 08:04:43;;;;;;;14.60;10.30;;;2.40;70.50;;;;;;5068218;28;20434;-65
2022/03/06 08:07:08;;;;;;;15.18;10.00;;;2.50;70.60;;;;;;5058046;28;20056;-65
2022/03/06 08:09:34;;;;;;;16.00;11.13;;;2.50;70.50;;;;;;5063911;28;20033;-65
2022/03/06 08:12:03;;;;;;;14.38;9.98;;;2.60;70.50;;;;;;5060645;28;20091;-65
2022/03/06 08:14:29;;;;;;;14.65;10.38;;;2.60;70.70;;;;;;5052101;28;20036;-65
2022/03/06 08:16:55;;;;;;;13.93;10.20;;;2.60;70.70;;;;;;5058605;28;20044;-65
2022/03/06 08:19:21;;;;;;;13.23;9.57;;;2.70;70.60;;;;;;5053943;28;20125;-63
2022/03/06 08:21:48;;;;;;;14.32;9.43;;;2.70;70.50;;;;;;5071215;28;20022;-63
2022/03/06 08:24:14;;;;;;;13.07;8.90;;;2.70;70.50;;;;;;5066581;28;20024;-62
2022/03/06 08:26:40;;;;;;;15.25;9.85;;;2.80;70.40;;;;;;5056949;28;20377;-64
2022/03/06 08:29:06;;;;;;;14.30;9.38;;;2.80;70.30;;;;;;5061301;28;20072;-64
2022/03/06 08:31:32;;;;;;;16.63;9.43;;;2.90;70.50;;;;;;5056861;28;20491;-64
2022/03/06 08:33:58;;;;;;;13.63;9.73;;;2.90;70.30;;;;;;5070568;28;20040;-67
2022/03/06 08:36:23;;;;;;;13.15;8.50;;;3.00;70.50;;;;;;5063223;28;20451;-67
2022/03/06 08:38:49;;;;;;;12.80;8.55;;;3.00;70.50;;;;;;5061523;28;20022;-67
2022/03/06 08:41:18;;;;;;;15.93;8.32;;;3.10;70.40;;;;;;5062293;28;20052;-67
2022/03/06 08:43:43;;;;;;;13.13;8.82;;;3.10;70.40;;;;;;5082396;28;20021;-67
2022/03/06 08:46:09;;;;;;;13.55;8.43;;;3.20;70.30;;;;;;5084672;28;20041;-67
2022/03/06 08:48:38;;;;;;;13.30;9.50;;;3.30;70.50;;;;;;5061912;28;20041;-67
2022/03/06 08:51:05;;;;;;;11.38;8.13;;;3.30;70.30;;;;;;5060117;28;20036;-68
2022/03/06 08:53:31;;;;;;;11.25;7.65;;;3.40;70.20;;;;;;5054387;28;20064;-67
2022/03/06 08:55:57;;;;;;;12.50;7.88;;;3.50;70.10;;;;;;5060407;28;20073;-64
2022/03/06 08:58:23;;;;;;;12.32;8.15;;;3.60;70.00;;;;;;5085909;28;20028;-64
2022/03/06 09:00:48;;;;;;;12.43;7.88;;;3.70;69.90;;;;;;5050091;28;20033;-65
2022/03/06 09:03:14;;;;;;;12.52;7.07;;;3.80;69.70;;;;;;5054260;28;20040;-65
2022/03/06 09:05:40;;;;;;;10.50;7.07;;;3.90;69.50;;;;;;5066982;28;20024;-65
2022/03/06 09:08:09;;;;;;;10.95;7.25;;;3.90;69.20;;;;;;5065981;28;20122;-65
2022/03/06 09:10:36;;;;;;;10.40;7.30;;;4.10;69.00;;;;;;5061298;28;20033;-64
2022/03/06 09:13:02;;;;;;;10.13;6.82;;;4.20;68.70;;;;;;5061624;28;20033;-64
2022/03/06 09:15:28;;;;;;;9.13;7.00;;;4.30;68.40;;;;;;5050643;28;20013;-64
2022/03/06 09:17:54;;;;;;;11.68;7.38;;;4.40;68.20;;;;;;5066272;28;20109;-63
2022/03/06 09:20:20;;;;;;;8.43;6.35;;;4.40;67.90;;;;;;5056730;28;20060;-64
2022/03/06 09:22:48;;;;;;;8.88;6.18;;;4.50;67.70;;;;;;5067591;28;20036;-64
2022/03/06 09:25:14;;;;;;;9.73;7.07;;;4.60;67.40;;;;;;5058954;28;20539;-64
2022/03/06 09:27:40;;;;;;;9.63;6.38;;;4.70;67.00;;;;;;5066824;28;20556;-64
2022/03/06 09:30:07;;;;;;;8.88;6.50;;;4.80;66.80;;;;;;5061796;28;20035;-68
2022/03/06 09:32:33;;;;;;;8.73;5.85;;;4.90;66.20;;;;;;5068826;28;20036;-68
2022/03/06 09:34:58;;;;;;;7.60;5.90;;;4.90;65.80;;;;;;5067956;28;20029;-67
2022/03/06 09:37:24;;;;;;;8.95;5.85;;;5.00;65.60;;;;;;5066858;28;20025;-68
2022/03/06 09:39:50;;;;;;;9.57;6.00;;;5.10;65.10;;;;;;5062323;28;20061;-66
2022/03/06 09:42:22;;;;;;;7.25;5.28;;;5.20;64.80;;;;;;5050401;28;20032;-67
2022/03/06 09:44:49;;;;;;;8.18;5.55;;;5.20;64.40;;;;;;5049353;28;20369;-66
2022/03/06 09:47:16;;;;;;;8.02;5.50;;;5.30;64.10;;;;;;5056392;28;20105;-66
2022/03/06 09:49:43;;;;;;;9.25;5.35;;;5.40;63.70;;;;;;5063533;28;20118;-66
2022/03/06 09:52:09;;;;;;;7.80;5.60;;;5.50;63.60;;;;;;5050672;28;20468;-66
2022/03/06 09:54:35;;;;;;;7.47;5.63;;;5.60;63.30;;;;;;5050272;28;20516;-67
2022/03/06 09:57:01;;;;;;;7.70;5.45;;;5.80;62.90;;;;;;5049881;28;20037;-66
2022/03/06 09:59:30;;;;;;;8.05;5.80;;;5.90;62.30;;;;;;5060708;28;20029;-66
2022/03/06 10:02:03;;;;;;;6.68;5.53;;;6.00;62.10;;;;;;5061191;28;20889;-66
2022/03/06 10:04:31;;;;;;;8.20;6.32;;;6.10;61.50;;;;;;5065576;28;20031;-67
2022/03/06 10:06:59;;;;;;;7.85;5.88;;;6.20;60.90;;;;;;5068235;28;20035;-66
2022/03/06 10:09:25;;;;;;;8.27;5.43;;;6.30;60.30;;;;;;5065641;28;20438;-63
2022/03/06 10:11:53;;;;;;;7.47;5.82;;;6.40;59.90;;;;;;5061131;28;20036;-63
2022/03/06 10:14:41;;;;;;;6.93;5.57;;;6.50;59.70;;;;;;5066610;28;20548;-63
2022/03/06 10:17:09;;;;;;;6.38;5.00;;;6.50;59.10;;;;;;5069274;28;20028;-66
2022/03/06 10:19:56;;;;;;;8.95;6.03;;;6.70;59.30;;;;;;5067739;28;20039;-66
2022/03/06 10:22:30;;;;;;;6.00;5.07;;;6.80;58.30;;;;;;5063407;28;20025;-66
2022/03/06 10:25:08;;;;;;;6.40;5.13;;;6.90;58.30;;;;;;5065145;28;20593;-66
2022/03/06 10:27:44;;;;;;;7.90;5.07;;;7.10;57.90;;;;;;5060236;28;20032;-66
2022/03/06 10:30:25;;;;;;;7.15;5.18;;;7.20;57.10;;;;;;5070596;28;20052;-63
2022/03/06 10:32:52;;;;;;;6.63;5.18;;;7.30;56.70;;;;;;5053847;28;20017;-66
2022/03/06 10:35:18;;;;;;;7.13;5.50;;;7.40;56.30;;;;;;5056406;28;20468;-66
2022/03/06 10:37:43;;;;;;;6.55;4.95;;;7.40;55.70;;;;;;5059339;28;20021;-66
2022/03/06 10:40:14;;;;;;;7.30;5.25;;;7.50;55.90;;;;;;5060435;28;20040;-66
2022/03/06 10:42:41;;;;;;;8.55;5.50;;;7.70;55.40;;;;;;5054214;28;20036;-65
2022/03/06 10:45:22;;;;;;;6.07;4.72;;;7.80;54.60;;;;;;5055797;28;20103;-63
2022/03/06 10:47:47;;;;;;;6.10;5.35;;;8.00;54.60;;;;;;5062118;28;20074;-62
2022/03/06 10:50:19;;;;;;;7.35;4.95;;;8.10;54.30;;;;;;5060617;28;20028;-63
2022/03/06 10:52:45;;;;;;;8.07;5.15;;;8.20;53.60;;;;;;5055913;28;20100;-67
2022/03/06 10:55:11;;;;;;;6.28;4.60;;;8.40;53.70;;;;;;5052585;28;20392;-67
2022/03/06 10:57:37;;;;;;;7.97;5.35;;;8.50;53.60;;;;;;5059585;28;20020;-67
2022/03/06 11:00:04;;;;;;;6.88;4.55;;;8.50;52.80;;;;;;5052559;28;20537;-67
2022/03/06 11:02:31;;;;;;;6.03;4.68;;;8.70;52.30;;;;;;5058779;28;20031;-67
2022/03/06 11:05:00;;;;;;;6.32;4.95;;;8.70;51.50;;;;;;5061122;28;20386;-66
2022/03/06 11:07:29;;;;;;;7.78;4.90;;;8.80;50.90;;;;;;5076090;28;20076;-66
2022/03/06 11:09:57;;;;;;;7.28;4.70;;;8.90;50.70;;;;;;5063421;28;20047;-66
2022/03/06 11:12:26;;;;;;;7.20;4.80;;;9.00;49.90;;;;;;5063022;28;20498;-66
2022/03/06 11:14:52;;;;;;;7.50;4.80;;;9.00;49.90;;;;;;5060440;28;20483;-66
2022/03/06 11:17:18;;;;;;;6.82;4.75;;;9.00;49.30;;;;;;5064950;28;20064;-63
2022/03/06 11:19:44;;;;;;;5.40;4.32;;;9.10;49.50;;;;;;5055483;28;20060;-63
2022/03/06 11:22:20;;;;;;;5.97;4.53;;;9.30;49.30;;;;;;5053851;28;20079;-63
2022/03/06 11:24:52;;;;;;;6.57;4.60;;;9.50;48.90;;;;;;5051888;28;20550;-63
2022/03/06 11:27:57;;;;;;;9.60;5.03;;;9.50;48.20;;;;;;5059249;28;20024;-63
2022/03/06 11:30:24;;;;;;;6.05;5.28;;;9.60;47.80;;;;;;5062278;28;20051;-63
2022/03/06 11:33:07;;;;;;;5.32;4.38;;;9.60;46.70;;;;;;5059261;28;20491;-63
2022/03/06 11:35:42;;;;;;;7.55;5.30;;;9.70;46.70;;;;;;5056649;28;20028;-66
2022/03/06 11:38:13;;;;;;;6.10;5.07;;;9.80;46.40;;;;;;5057503;28;20044;-66
2022/03/06 11:40:49;;;;;;;6.22;5.47;;;9.90;46.20;;;;;;5047468;28;20032;-66
2022/03/06 11:43:30;;;;;;;6.35;4.85;;;10.00;45.60;;;;;;5065687;28;20028;-63
2022/03/06 11:45:59;;;;;;;7.22;5.00;;;10.10;45.50;;;;;;5056480;28;20029;-63
2022/03/06 11:48:32;;;;;;;4.82;4.32;;;10.20;45.00;;;;;;5056591;28;20044;-63
2022/03/06 11:51:26;;;;;;;5.68;4.65;;;10.40;44.80;;;;;;5056547;28;20028;-66
2022/03/06 11:54:05;;;;;;;5.82;4.90;;;10.50;44.20;;;;;;5051409;28;20074;-66
2022/03/06 11:56:39;;;;;;;6.07;4.75;;;10.60;43.60;;;;;;5054604;28;20375;-63
2022/03/06 11:59:32;;;;;;;5.78;5.07;;;10.70;43.10;;;;;;5057563;28;20059;-63
2022/03/06 12:02:05;;;;;;;8.50;5.28;;;10.80;42.70;;;;;;5055637;28;20032;-66
2022/03/06 12:04:34;;;;;;;5.53;4.68;;;10.90;42.80;;;;;;5054130;28;20029;-66
2022/03/06 12:07:03;;;;;;;6.18;4.93;;;10.80;42.60;;;;;;5056786;28;20024;-66
2022/03/06 12:09:31;;;;;;;5.32;4.60;;;10.60;42.30;;;;;;5056432;28;20052;-64
2022/03/06 12:12:00;;;;;;;8.40;5.32;;;10.50;42.80;;;;;;5053296;28;20025;-64
2022/03/06 12:14:38;;;;;;;6.25;5.38;;;10.50;42.90;;;;;;5052504;28;20132;-67
2022/03/06 12:17:10;;;;;;;6.30;5.10;;;10.60;43.10;;;;;;5055567;28;20077;-64
2022/03/06 12:19:45;;;;;;;5.95;4.95;;;10.70;42.50;;;;;;5057215;28;20023;-67
2022/03/06 12:22:20;;;;;;;6.10;5.22;;;10.80;42.10;;;;;;5068540;28;20256;-64
2022/03/06 12:25:10;;;;;;;5.70;4.82;;;10.90;42.10;;;;;;5056345;28;20048;-64
2022/03/06 12:27:39;;;;;;;5.35;4.85;;;11.00;41.60;;;;;;5094129;27;20479;-67
2022/03/06 12:32:56;;;;;;;6.05;5.43;;;11.30;40.80;;;;;;5136511;27;20118;-66
2022/03/06 12:35:22;;;;;;;6.35;5.32;;;11.50;40.80;;;;;;5123135;27;20478;-66
2022/03/06 12:37:53;;;;;;;7.20;5.03;;;11.60;40.40;;;;;;5104361;28;20077;-66
2022/03/06 12:40:25;;;;;;;5.88;5.20;;;11.60;40.50;;;;;;5115174;27;20043;-67
2022/03/06 12:43:17;;;;;;;7.82;6.40;;;11.60;40.00;;;;;;5095866;28;20028;-67
2022/03/06 12:45:43;;;;;;;6.47;5.10;;;11.40;39.50;;;;;;5119243;27;20545;-66
2022/03/06 12:48:09;;;;;;;7.18;5.53;;;11.10;39.20;;;;;;5113120;27;20034;-64